Time;durP1;ratioP1;P1;durP2;ratioP2;P2;SDS_P1;SDS_P2;PMS_P1;PMS_P2;Temp;Humidity;BMP_temperature;BMP_pressure;BME280_temperature;BME280_humidity;BME280_pressure;Samples;Min_cycle;Max_cycle;Signal;HPM_P1;HPM_P2
2022/10/14 00:00:08;;;;;;;25.88;10.75;;;;;;;;;;5035493;28;20383;-79
2022/10/14 00:02:40;;;;;;;30.25;11.05;;;;;;;;;;5035687;28;20065;-80
2022/10/14 00:05:08;;;;;;;27.90;11.68;;;;;;;;;;5034358;28;20053;-78
2022/10/14 00:07:40;;;;;;;23.30;10.35;;;;;;;;;;5036903;28;20383;-77
2022/10/14 00:10:06;;;;;;;24.77;11.35;;;;;;;;;;5051342;28;20037;-79
2022/10/14 00:12:35;;;;;;;29.08;10.93;;;;;;;;;;5054991;28;20041;-78
2022/10/14 00:15:04;;;;;;;26.30;10.80;;;;;;;;;;5043089;28;20092;-80
2022/10/14 00:17:31;;;;;;;23.55;10.55;;;;;;;;;;5032680;28;20206;-80
2022/10/14 00:20:02;;;;;;;19.77;10.93;;;;;;;;;;5031280;28;20054;-81
2022/10/14 00:22:33;;;;;;;23.33;11.38;;;;;;;;;;5032479;28;20113;-79
2022/10/14 00:24:59;;;;;;;21.55;10.40;;;;;;;;;;5033477;28;20069;-81
2022/10/14 00:27:26;;;;;;;32.13;11.85;;;;;;;;;;5033161;28;20049;-78
2022/10/14 00:29:52;;;;;;;23.73;10.80;;;;;;;;;;5034941;28;20136;-80
2022/10/14 00:32:18;;;;;;;25.95;10.65;;;;;;;;;;5033817;28;20053;-81
2022/10/14 00:34:45;;;;;;;23.50;10.73;;;;;;;;;;5034063;28;20049;-78
2022/10/14 00:37:11;;;;;;;27.95;11.25;;;;;;;;;;5031197;28;20538;-77
2022/10/14 00:39:37;;;;;;;21.48;10.45;;;;;;;;;;5032112;28;20045;-77
2022/10/14 00:42:04;;;;;;;21.38;11.35;;;;;;;;;;5030849;28;20068;-78
2022/10/14 00:44:30;;;;;;;34.47;11.80;;;;;;;;;;5030339;28;20060;-78
2022/10/14 00:46:57;;;;;;;23.58;11.35;;;;;;;;;;5030952;28;20426;-80
2022/10/14 00:49:28;;;;;;;18.60;9.90;;;;;;;;;;5030907;28;20113;-78
2022/10/14 00:51:57;;;;;;;20.70;10.35;;;;;;;;;;5031293;28;20060;-79
2022/10/14 00:54:28;;;;;;;19.92;10.75;;;;;;;;;;5032156;28;20061;-80
2022/10/14 00:56:54;;;;;;;22.65;11.48;;;;;;;;;;5029977;28;20445;-80
2022/10/14 00:59:20;;;;;;;22.75;11.02;;;;;;;;;;5031081;28;20119;-80
2022/10/14 01:01:47;;;;;;;27.20;12.38;;;;;;;;;;5030928;28;20045;-80
2022/10/14 01:04:13;;;;;;;25.27;10.82;;;;;;;;;;5030970;28;20047;-80
2022/10/14 01:06:44;;;;;;;28.08;11.63;;;;;;;;;;5030947;28;20041;-80
2022/10/14 01:09:19;;;;;;;22.88;11.85;;;;;;;;;;5031886;28;20045;-78
2022/10/14 01:11:53;;;;;;;23.80;11.55;;;;;;;;;;5031333;28;20243;-79
2022/10/14 01:14:58;;;;;;;29.65;12.75;;;;;;;;;;5030997;28;20510;-78
2022/10/14 01:17:25;;;;;;;22.25;12.68;;;;;;;;;;5029855;28;20053;-78
2022/10/14 01:19:51;;;;;;;25.10;12.13;;;;;;;;;;5031368;28;20068;-77
2022/10/14 01:22:17;;;;;;;26.15;12.88;;;;;;;;;;5032858;28;20049;-79
2022/10/14 01:24:59;;;;;;;24.00;12.90;;;;;;;;;;5032110;28;20136;-79
2022/10/14 01:27:29;;;;;;;24.27;12.95;;;;;;;;;;5032451;28;20057;-78
2022/10/14 01:30:03;;;;;;;27.58;12.88;;;;;;;;;;5032289;28;20493;-78
2022/10/14 01:32:40;;;;;;;22.27;13.38;;;;;;;;;;5032777;28;20049;-79
2022/10/14 01:35:22;;;;;;;26.27;13.02;;;;;;;;;;5030000;28;20498;-78
2022/10/14 01:37:54;;;;;;;24.95;12.90;;;;;;;;;;5031113;28;20049;-78
2022/10/14 01:40:44;;;;;;;26.17;13.70;;;;;;;;;;5031961;28;20060;-78
2022/10/14 01:43:12;;;;;;;25.60;13.55;;;;;;;;;;5029853;28;20049;-79
2022/10/14 01:45:40;;;;;;;27.92;14.20;;;;;;;;;;5032133;28;20049;-78
2022/10/14 01:48:09;;;;;;;29.73;13.95;;;;;;;;;;5031365;28;20045;-78
2022/10/14 01:50:37;;;;;;;31.30;13.73;;;;;;;;;;5030839;28;20053;-79
2022/10/14 01:53:06;;;;;;;25.80;13.25;;;;;;;;;;5031583;28;20071;-78
2022/10/14 01:55:35;;;;;;;24.33;13.40;;;;;;;;;;5033180;28;20065;-79
2022/10/14 01:58:02;;;;;;;29.33;13.32;;;;;;;;;;5032466;28;20482;-78
2022/10/14 02:00:28;;;;;;;27.23;13.88;;;;;;;;;;5017004;28;20048;-79
2022/10/14 02:02:54;;;;;;;29.10;14.90;;;;;;;;;;5032546;28;20053;-81
2022/10/14 02:05:21;;;;;;;34.50;16.08;;;;;;;;;;5031403;28;20057;-80
2022/10/14 02:07:50;;;;;;;37.65;17.27;;;;;;;;;;5031252;28;20041;-80
2022/10/14 02:10:23;;;;;;;35.45;15.95;;;;;;;;;;5033355;28;20053;-79
2022/10/14 02:13:08;;;;;;;31.63;15.13;;;;;;;;;;5037146;28;20100;-78
2022/10/14 02:15:49;;;;;;;30.63;15.23;;;;;;;;;;5037017;28;20046;-78
2022/10/14 02:18:34;;;;;;;34.78;15.77;;;;;;;;;;5035245;28;20053;-78
2022/10/14 02:21:16;;;;;;;35.33;16.20;;;;;;;;;;5036488;28;20136;-80
2022/10/14 02:23:44;;;;;;;33.78;13.93;;;;;;;;;;5036707;28;20052;-78
2022/10/14 02:26:11;;;;;;;31.08;13.80;;;;;;;;;;5034825;28;20174;-78
2022/10/14 02:28:39;;;;;;;28.83;13.73;;;;;;;;;;5034535;28;20081;-79
2022/10/14 02:31:09;;;;;;;34.90;14.65;;;;;;;;;;5034620;28;20056;-78
2022/10/14 02:33:38;;;;;;;32.75;14.48;;;;;;;;;;5034855;28;20046;-79
2022/10/14 02:36:06;;;;;;;28.95;13.73;;;;;;;;;;5034015;28;20049;-79
2022/10/14 02:38:33;;;;;;;28.90;15.18;;;;;;;;;;5035160;28;20109;-80
2022/10/14 02:41:00;;;;;;;34.17;14.00;;;;;;;;;;5043884;28;20046;-80
2022/10/14 02:43:26;;;;;;;35.85;13.93;;;;;;;;;;5041232;28;20045;-79
2022/10/14 02:45:56;;;;;;;31.13;14.18;;;;;;;;;;5043386;28;20056;-79
2022/10/14 02:48:22;;;;;;;27.33;13.75;;;;;;;;;;5040182;28;20056;-79
2022/10/14 02:50:48;;;;;;;29.77;13.68;;;;;;;;;;5040093;28;20049;-78
2022/10/14 02:53:15;;;;;;;29.17;14.45;;;;;;;;;;5040126;28;20049;-79
2022/10/14 02:55:42;;;;;;;26.13;13.23;;;;;;;;;;5040268;28;20060;-79
2022/10/14 02:58:08;;;;;;;25.40;13.43;;;;;;;;;;5041255;28;20156;-78
2022/10/14 03:00:35;;;;;;;36.03;13.70;;;;;;;;;;5043035;28;20060;-78
2022/10/14 03:03:01;;;;;;;28.02;12.77;;;;;;;;;;5042842;28;20045;-80
2022/10/14 03:05:27;;;;;;;28.02;12.02;;;;;;;;;;5036172;28;20060;-78
2022/10/14 03:07:54;;;;;;;25.67;13.20;;;;;;;;;;5031439;28;20046;-78
2022/10/14 03:10:20;;;;;;;27.60;13.05;;;;;;;;;;5031794;28;20045;-78
2022/10/14 03:12:47;;;;;;;27.33;12.50;;;;;;;;;;5034947;28;20053;-78
2022/10/14 03:15:13;;;;;;;25.23;12.98;;;;;;;;;;5035402;28;20064;-79
2022/10/14 03:17:39;;;;;;;28.58;13.32;;;;;;;;;;5032714;28;20576;-79
2022/10/14 03:20:06;;;;;;;28.23;12.27;;;;;;;;;;5031828;28;20068;-79
2022/10/14 03:22:32;;;;;;;25.13;12.25;;;;;;;;;;5034703;28;20629;-80
2022/10/14 03:24:59;;;;;;;31.58;12.23;;;;;;;;;;5037228;28;20049;-78
2022/10/14 03:27:25;;;;;;;23.40;11.20;;;;;;;;;;5033890;28;20056;-78
2022/10/14 03:29:52;;;;;;;22.08;11.32;;;;;;;;;;5035267;28;20501;-79
2022/10/14 03:32:18;;;;;;;23.50;11.75;;;;;;;;;;5035497;28;20049;-79
2022/10/14 03:34:45;;;;;;;27.45;10.90;;;;;;;;;;5041847;28;20050;-79
2022/10/14 03:37:11;;;;;;;21.67;10.80;;;;;;;;;;5055298;28;20114;-79
2022/10/14 03:39:38;;;;;;;26.27;11.18;;;;;;;;;;5057580;28;20044;-78
2022/10/14 03:42:05;;;;;;;25.13;11.95;;;;;;;;;;5041969;28;20117;-79
2022/10/14 03:44:31;;;;;;;27.98;11.40;;;;;;;;;;5036531;28;20080;-80
2022/10/14 03:46:57;;;;;;;30.00;11.80;;;;;;;;;;5033556;28;20045;-80
2022/10/14 03:49:24;;;;;;;23.80;11.80;;;;;;;;;;5033114;28;20053;-80
2022/10/14 03:51:50;;;;;;;23.15;11.32;;;;;;;;;;5033300;28;20659;-79
2022/10/14 03:54:16;;;;;;;22.38;11.00;;;;;;;;;;5033101;28;20050;-80
2022/10/14 03:56:43;;;;;;;21.23;12.10;;;;;;;;;;5032262;28;20057;-80
2022/10/14 03:59:09;;;;;;;23.45;11.40;;;;;;;;;;5033166;28;20241;-80
2022/10/14 04:01:36;;;;;;;26.92;12.05;;;;;;;;;;5032674;28;20060;-80
2022/10/14 04:04:02;;;;;;;26.40;11.70;;;;;;;;;;5033198;28;20041;-81
2022/10/14 04:06:30;;;;;;;23.65;11.95;;;;;;;;;;5034010;28;20050;-80
2022/10/14 04:08:56;;;;;;;27.20;11.77;;;;;;;;;;5032484;28;20055;-80
2022/10/14 04:11:22;;;;;;;25.63;11.73;;;;;;;;;;5031013;28;20054;-80
2022/10/14 04:13:49;;;;;;;25.90;12.30;;;;;;;;;;5030727;28;20053;-80
2022/10/14 04:16:15;;;;;;;22.67;11.23;;;;;;;;;;5031420;28;20050;-80
2022/10/14 04:18:41;;;;;;;28.80;13.18;;;;;;;;;;5031385;28;20049;-80
2022/10/14 04:21:10;;;;;;;20.13;12.50;;;;;;;;;;5031743;28;20136;-80
2022/10/14 04:23:37;;;;;;;24.73;13.43;;;;;;;;;;5031351;28;20045;-79
2022/10/14 04:26:04;;;;;;;30.40;13.45;;;;;;;;;;5030686;28;20048;-80
2022/10/14 04:28:31;;;;;;;28.85;13.88;;;;;;;;;;5030021;28;20045;-79
2022/10/14 04:30:57;;;;;;;38.03;14.15;;;;;;;;;;5030283;28;20125;-75
2022/10/14 04:33:24;;;;;;;32.35;14.07;;;;;;;;;;5030195;28;20053;-76
2022/10/14 04:35:55;;;;;;;29.67;14.52;;;;;;;;;;5029013;28;20050;-76
2022/10/14 04:38:22;;;;;;;24.88;13.80;;;;;;;;;;5028114;28;20047;-76
2022/10/14 04:40:48;;;;;;;25.55;13.05;;;;;;;;;;5030000;28;20045;-76
2022/10/14 04:43:14;;;;;;;28.63;14.23;;;;;;;;;;5030030;28;20041;-77
2022/10/14 04:45:41;;;;;;;27.67;13.85;;;;;;;;;;5029447;28;20049;-77
2022/10/14 04:48:07;;;;;;;26.73;13.95;;;;;;;;;;5028887;28;20497;-74
2022/10/14 04:50:34;;;;;;;27.58;13.60;;;;;;;;;;5029695;28;20053;-77
2022/10/14 04:53:00;;;;;;;27.20;13.20;;;;;;;;;;5029993;28;20061;-74
2022/10/14 04:55:26;;;;;;;27.20;12.65;;;;;;;;;;5029456;28;20061;-77
2022/10/14 04:57:53;;;;;;;31.65;11.75;;;;;;;;;;5027510;28;20053;-76
2022/10/14 05:00:19;;;;;;;31.08;11.55;;;;;;;;;;5029854;28;20049;-77
2022/10/14 05:02:46;;;;;;;22.58;10.93;;;;;;;;;;5028782;28;20045;-81
2022/10/14 05:05:13;;;;;;;23.17;10.98;;;;;;;;;;5028319;28;20064;-79
2022/10/14 05:07:40;;;;;;;20.70;10.95;;;;;;;;;;5029017;28;20045;-81
2022/10/14 05:10:09;;;;;;;19.63;10.25;;;;;;;;;;5027766;28;20779;-80
2022/10/14 05:12:36;;;;;;;19.52;9.57;;;;;;;;;;5028536;28;20049;-80
2022/10/14 05:15:04;;;;;;;25.77;10.27;;;;;;;;;;5035599;28;20049;-80
2022/10/14 05:17:35;;;;;;;24.20;10.23;;;;;;;;;;5038259;28;20064;-81
2022/10/14 05:20:01;;;;;;;20.80;10.38;;;;;;;;;;5040432;28;20049;-81
2022/10/14 05:22:27;;;;;;;21.63;10.02;;;;;;;;;;5041015;28;20113;-80
2022/10/14 05:24:54;;;;;;;21.13;9.20;;;;;;;;;;5038922;28;20052;-81
2022/10/14 05:27:20;;;;;;;18.10;10.02;;;;;;;;;;5029394;28;20122;-80
2022/10/14 05:29:47;;;;;;;19.88;10.02;;;;;;;;;;5035313;28;20087;-79
2022/10/14 05:32:14;;;;;;;18.77;8.98;;;;;;;;;;5034754;28;20056;-80
2022/10/14 05:34:40;;;;;;;22.95;9.55;;;;;;;;;;5034161;28;20081;-80
2022/10/14 05:37:07;;;;;;;19.52;9.00;;;;;;;;;;5026418;28;20049;-80
2022/10/14 05:39:33;;;;;;;16.60;9.13;;;;;;;;;;5016074;28;20603;-80
2022/10/14 05:42:00;;;;;;;18.65;9.10;;;;;;;;;;5024726;28;20050;-80
2022/10/14 05:44:26;;;;;;;18.90;9.20;;;;;;;;;;5023341;28;20049;-80
2022/10/14 05:46:53;;;;;;;17.58;9.30;;;;;;;;;;5023892;28;20052;-81
2022/10/14 05:49:19;;;;;;;23.88;10.30;;;;;;;;;;5024459;28;20057;-81
2022/10/14 05:51:45;;;;;;;19.15;11.07;;;;;;;;;;5020179;28;20053;-79
2022/10/14 05:54:12;;;;;;;21.27;12.10;;;;;;;;;;5025208;28;20042;-81
2022/10/14 05:56:38;;;;;;;29.83;13.75;;;;;;;;;;5024528;28;20060;-81
2022/10/14 05:59:05;;;;;;;26.38;12.88;;;;;;;;;;5027100;28;20045;-81
2022/10/14 06:01:33;;;;;;;23.23;12.27;;;;;;;;;;5025285;28;20041;-79
2022/10/14 06:03:59;;;;;;;27.75;13.15;;;;;;;;;;5021873;28;20502;-79
2022/10/14 06:06:26;;;;;;;25.73;12.18;;;;;;;;;;5028765;28;20053;-78
2022/10/14 06:08:55;;;;;;;26.00;12.65;;;;;;;;;;5029625;28;20446;-78
2022/10/14 06:11:21;;;;;;;25.42;13.48;;;;;;;;;;5030090;28;20413;-79
2022/10/14 06:13:48;;;;;;;26.83;13.05;;;;;;;;;;5032115;28;20050;-80
2022/10/14 06:16:14;;;;;;;23.65;13.00;;;;;;;;;;5030960;28;20049;-80
2022/10/14 06:18:41;;;;;;;25.45;12.75;;;;;;;;;;5030902;28;20126;-79
2022/10/14 06:21:08;;;;;;;29.17;12.68;;;;;;;;;;5031205;28;20071;-79
2022/10/14 06:23:34;;;;;;;21.55;11.82;;;;;;;;;;5031914;28;20050;-80
2022/10/14 06:26:05;;;;;;;28.58;13.43;;;;;;;;;;5031776;28;20053;-78
2022/10/14 06:28:31;;;;;;;24.63;12.88;;;;;;;;;;5033002;28;20255;-79
2022/10/14 06:30:57;;;;;;;22.52;12.63;;;;;;;;;;5033161;28;20096;-79
2022/10/14 06:33:24;;;;;;;27.08;12.98;;;;;;;;;;5031330;28;20053;-79
2022/10/14 06:35:50;;;;;;;30.30;13.25;;;;;;;;;;5029074;28;20140;-78
2022/10/14 06:38:17;;;;;;;23.65;11.77;;;;;;;;;;5035074;28;20055;-79
2022/10/14 06:40:43;;;;;;;21.20;10.55;;;;;;;;;;5032565;28;20132;-79
2022/10/14 06:43:09;;;;;;;18.20;10.23;;;;;;;;;;5034948;28;20045;-79
2022/10/14 06:45:36;;;;;;;16.10;8.02;;;;;;;;;;5033221;28;20297;-78
2022/10/14 06:48:03;;;;;;;14.18;7.30;;;;;;;;;;5033037;28;20058;-78
2022/10/14 06:50:30;;;;;;;15.00;8.10;;;;;;;;;;5033151;28;20508;-79
2022/10/14 06:52:56;;;;;;;14.07;7.68;;;;;;;;;;5032382;28;20049;-80
2022/10/14 06:55:22;;;;;;;12.35;7.47;;;;;;;;;;5032665;28;20049;-80
2022/10/14 06:57:49;;;;;;;17.40;8.25;;;;;;;;;;5031084;28;20053;-79
2022/10/14 07:00:15;;;;;;;15.00;8.05;;;;;;;;;;5039224;28;20042;-79
2022/10/14 07:02:43;;;;;;;15.18;8.43;;;;;;;;;;5055891;28;20045;-78
2022/10/14 07:05:09;;;;;;;15.05;7.93;;;;;;;;;;5054383;28;20228;-79
2022/10/14 07:07:36;;;;;;;15.98;8.32;;;;;;;;;;5035349;28;20443;-79
2022/10/14 07:10:02;;;;;;;14.73;8.05;;;;;;;;;;5032429;28;20049;-79
2022/10/14 07:12:28;;;;;;;15.40;7.72;;;;;;;;;;5033200;28;20049;-79
2022/10/14 07:14:55;;;;;;;13.68;8.07;;;;;;;;;;5031255;28;20061;-80
2022/10/14 07:17:22;;;;;;;14.23;7.50;;;;;;;;;;5032376;28;20474;-78
2022/10/14 07:19:49;;;;;;;14.05;7.78;;;;;;;;;;5032361;28;20414;-81
2022/10/14 07:22:16;;;;;;;18.00;8.45;;;;;;;;;;5042190;28;20098;-80
2022/10/14 07:24:43;;;;;;;16.27;7.68;;;;;;;;;;5055236;28;20061;-79
2022/10/14 07:27:09;;;;;;;14.45;8.27;;;;;;;;;;5055494;28;20033;-78
2022/10/14 07:29:36;;;;;;;19.00;8.50;;;;;;;;;;5053671;28;20073;-79
2022/10/14 07:32:02;;;;;;;15.15;7.38;;;;;;;;;;5053894;28;20059;-78
2022/10/14 07:34:29;;;;;;;14.20;8.13;;;;;;;;;;5054095;28;20125;-79
2022/10/14 07:36:55;;;;;;;15.55;7.53;;;;;;;;;;5054128;28;20109;-80
2022/10/14 07:39:22;;;;;;;14.75;7.55;;;;;;;;;;5054216;28;20259;-79
2022/10/14 07:41:49;;;;;;;14.65;7.78;;;;;;;;;;5054871;28;20069;-79
2022/10/14 07:44:16;;;;;;;18.90;8.15;;;;;;;;;;5054165;28;20049;-79
2022/10/14 07:46:44;;;;;;;14.38;7.43;;;;;;;;;;5054389;28;20101;-78
2022/10/14 07:49:16;;;;;;;16.38;7.68;;;;;;;;;;5054615;28;20037;-79
2022/10/14 07:51:42;;;;;;;15.90;8.60;;;;;;;;;;5054275;28;20106;-79
2022/10/14 07:54:13;;;;;;;16.65;7.65;;;;;;;;;;5054356;28;20088;-80
2022/10/14 07:56:41;;;;;;;14.18;7.57;;;;;;;;;;5053182;28;20117;-79
2022/10/14 07:59:08;;;;;;;17.98;8.43;;;;;;;;;;5053263;28;20103;-78
2022/10/14 08:01:34;;;;;;;15.55;8.80;;;;;;;;;;5052911;28;20055;-78
2022/10/14 08:04:00;;;;;;;15.90;9.05;;;;;;;;;;5050796;28;20049;-79
2022/10/14 08:06:27;;;;;;;15.65;8.52;;;;;;;;;;5050048;28;20080;-79
2022/10/14 08:08:53;;;;;;;17.33;8.80;;;;;;;;;;5048080;28;20049;-80
2022/10/14 08:11:21;;;;;;;19.75;8.75;;;;;;;;;;5048468;28;20332;-79
2022/10/14 08:13:48;;;;;;;18.90;9.25;;;;;;;;;;5044799;28;20062;-80
2022/10/14 08:16:16;;;;;;;19.55;9.05;;;;;;;;;;5043541;28;20049;-80
2022/10/14 08:18:43;;;;;;;18.70;8.00;;;;;;;;;;5043101;28;20040;-80
2022/10/14 08:21:09;;;;;;;18.67;8.88;;;;;;;;;;5044114;28;20052;-79
2022/10/14 08:23:35;;;;;;;15.82;8.32;;;;;;;;;;5047364;28;20061;-79
2022/10/14 08:26:02;;;;;;;15.30;8.43;;;;;;;;;;5048365;28;20049;-79
2022/10/14 08:28:28;;;;;;;16.23;8.43;;;;;;;;;;5050952;28;20036;-80
2022/10/14 08:30:55;;;;;;;14.23;8.23;;;;;;;;;;5053207;28;20041;-79
2022/10/14 08:33:21;;;;;;;16.05;7.32;;;;;;;;;;5053564;28;20037;-80
2022/10/14 08:35:47;;;;;;;10.75;6.75;;;;;;;;;;5053995;28;20033;-79
2022/10/14 08:38:23;;;;;;;13.07;6.82;;;;;;;;;;5050143;28;20046;-81
2022/10/14 08:41:09;;;;;;;12.07;6.47;;;;;;;;;;5052561;28;20056;-81
2022/10/14 08:43:36;;;;;;;13.33;6.63;;;;;;;;;;5051859;28;20117;-81
2022/10/14 08:46:10;;;;;;;11.38;6.80;;;;;;;;;;5052580;28;20040;-80
2022/10/14 08:48:36;;;;;;;11.00;7.15;;;;;;;;;;5052654;28;20067;-80
2022/10/14 08:51:14;;;;;;;13.38;6.22;;;;;;;;;;5044550;28;20104;-81
2022/10/14 08:53:52;;;;;;;11.30;6.93;;;;;;;;;;5034755;28;20076;-81
2022/10/14 08:56:19;;;;;;;13.45;6.10;;;;;;;;;;5033504;28;20195;-81
2022/10/14 08:58:45;;;;;;;8.77;5.45;;;;;;;;;;5033171;28;20060;-80
2022/10/14 09:01:23;;;;;;;10.77;5.55;;;;;;;;;;5032445;28;20323;-81
2022/10/14 09:03:56;;;;;;;8.93;5.60;;;;;;;;;;5031249;28;20046;-80
2022/10/14 09:06:26;;;;;;;9.38;5.18;;;;;;;;;;5031439;28;20103;-77
2022/10/14 09:08:59;;;;;;;11.40;6.00;;;;;;;;;;5032837;28;20128;-79
2022/10/14 09:11:26;;;;;;;13.80;6.82;;;;;;;;;;5033021;28;20513;-80
2022/10/14 09:13:59;;;;;;;15.10;7.93;;;;;;;;;;5036128;28;20103;-80
2022/10/14 09:16:28;;;;;;;15.25;7.65;;;;;;;;;;5032115;28;20053;-78
2022/10/14 09:19:02;;;;;;;14.38;7.80;;;;;;;;;;5033192;28;20060;-80
2022/10/14 09:21:35;;;;;;;15.13;8.43;;;;;;;;;;5032531;28;20049;-80
2022/10/14 09:24:18;;;;;;;18.85;7.95;;;;;;;;;;5033905;28;20111;-80
2022/10/14 09:26:51;;;;;;;13.32;8.35;;;;;;;;;;5032276;28;20045;-80
2022/10/14 09:29:20;;;;;;;15.95;7.40;;;;;;;;;;5030426;28;20513;-80
2022/10/14 09:31:47;;;;;;;16.45;7.57;;;;;;;;;;5032844;28;20041;-82
2022/10/14 09:34:22;;;;;;;14.00;7.45;;;;;;;;;;5031942;28;20045;-81
2022/10/14 09:36:49;;;;;;;18.05;7.45;;;;;;;;;;5032155;28;20057;-80
2022/10/14 09:39:16;;;;;;;13.50;7.32;;;;;;;;;;5033612;28;20064;-81
2022/10/14 09:41:44;;;;;;;15.88;7.63;;;;;;;;;;5032281;28;20141;-80
2022/10/14 09:44:12;;;;;;;14.27;6.70;;;;;;;;;;5031807;28;20049;-81
2022/10/14 09:46:38;;;;;;;15.27;6.38;;;;;;;;;;5031710;28;20056;-79
2022/10/14 09:49:12;;;;;;;9.43;6.47;;;;;;;;;;5032692;28;20041;-81
2022/10/14 09:51:43;;;;;;;11.85;5.93;;;;;;;;;;5032446;28;20046;-81
2022/10/14 09:54:20;;;;;;;9.80;5.70;;;;;;;;;;5030896;28;20538;-81
2022/10/14 09:56:48;;;;;;;13.18;6.30;;;;;;;;;;5032784;28;20113;-82
2022/10/14 09:59:16;;;;;;;9.60;5.63;;;;;;;;;;5033201;28;20053;-80
2022/10/14 10:01:53;;;;;;;11.10;6.22;;;;;;;;;;5034377;28;20481;-80
2022/10/14 10:04:24;;;;;;;11.85;6.50;;;;;;;;;;5040973;28;20045;-79
2022/10/14 10:06:52;;;;;;;10.13;6.13;;;;;;;;;;5042119;28;20053;-80
2022/10/14 10:09:18;;;;;;;10.77;6.32;;;;;;;;;;5035563;28;20085;-80
2022/10/14 10:11:45;;;;;;;10.98;5.72;;;;;;;;;;5032317;28;20056;-78
2022/10/14 10:14:15;;;;;;;11.57;5.38;;;;;;;;;;5032032;28;20056;-80
2022/10/14 10:16:41;;;;;;;11.02;6.38;;;;;;;;;;5028981;28;20056;-79
2022/10/14 10:19:30;;;;;;;11.80;6.53;;;;;;;;;;5029526;28;20126;-80
2022/10/14 10:22:15;;;;;;;14.77;6.43;;;;;;;;;;5029739;28;20136;-78
2022/10/14 10:24:43;;;;;;;10.88;6.18;;;;;;;;;;5043300;28;20129;-79
2022/10/14 10:27:19;;;;;;;9.25;5.43;;;;;;;;;;5052985;28;20061;-78
2022/10/14 10:29:46;;;;;;;9.20;5.32;;;;;;;;;;5044850;28;20057;-80
2022/10/14 10:32:23;;;;;;;7.75;4.82;;;;;;;;;;5032803;28;20050;-81
2022/10/14 10:34:55;;;;;;;8.02;4.22;;;;;;;;;;5034134;28;20088;-81
2022/10/14 10:37:51;;;;;;;6.10;3.33;;;;;;;;;;5033647;28;20128;-79
2022/10/14 10:40:28;;;;;;;10.27;4.45;;;;;;;;;;5020568;28;20128;-83
2022/10/14 10:43:13;;;;;;;8.20;3.65;;;;;;;;;;5034152;28;20055;-80
2022/10/14 10:45:42;;;;;;;5.63;3.30;;;;;;;;;;5028415;28;20601;-79
2022/10/14 10:48:32;;;;;;;4.85;3.20;;;;;;;;;;5031548;28;20111;-80
2022/10/14 10:51:04;;;;;;;7.32;2.50;;;;;;;;;;5019879;28;20053;-80
2022/10/14 10:53:33;;;;;;;4.03;2.40;;;;;;;;;;5031267;28;20412;-79
2022/10/14 10:56:08;;;;;;;4.07;2.75;;;;;;;;;;5031131;28;20091;-80
2022/10/14 10:58:49;;;;;;;6.10;3.03;;;;;;;;;;5030628;28;20060;-80
2022/10/14 11:01:16;;;;;;;6.80;2.80;;;;;;;;;;5028442;28;20069;-80
2022/10/14 11:03:55;;;;;;;7.15;3.00;;;;;;;;;;5029549;28;20050;-79
2022/10/14 11:12:01;;;;;;;4.15;2.72;;;;;;;;;;5032050;28;20045;-80
2022/10/14 11:12:21;;;;;;;3.83;2.28;;;;;;;;;;5015621;28;20057;-80
2022/10/14 11:14:51;;;;;;;4.75;2.30;;;;;;;;;;5031764;28;20060;-80
2022/10/14 11:17:36;;;;;;;4.65;2.13;;;;;;;;;;5032733;28;20136;-80
2022/10/14 11:20:08;;;;;;;5.30;2.58;;;;;;;;;;5034510;28;20045;-80
2022/10/14 11:22:54;;;;;;;3.85;2.33;;;;;;;;;;5037152;28;20056;-80
2022/10/14 11:25:32;;;;;;;3.15;2.15;;;;;;;;;;5038958;28;20052;-79
2022/10/14 11:28:13;;;;;;;3.65;2.25;;;;;;;;;;5035767;28;20084;-80
2022/10/14 11:30:43;;;;;;;6.43;2.03;;;;;;;;;;5036383;28;20050;-80
2022/10/14 11:33:23;;;;;;;3.25;1.80;;;;;;;;;;5052976;28;20045;-79
2022/10/14 11:36:21;;;;;;;4.47;1.77;;;;;;;;;;5038781;28;20053;-81
2022/10/14 11:38:50;;;;;;;4.55;1.63;;;;;;;;;;5019882;28;20041;-79
2022/10/14 11:41:23;;;;;;;3.60;1.48;;;;;;;;;;5031630;28;20046;-79
2022/10/14 11:44:00;;;;;;;3.72;1.63;;;;;;;;;;5032617;28;20048;-80
2022/10/14 11:46:28;;;;;;;2.55;1.40;;;;;;;;;;5032334;28;20690;-78
2022/10/14 11:48:57;;;;;;;1.73;1.30;;;;;;;;;;5030478;28;20041;-80
2022/10/14 11:51:23;;;;;;;4.13;1.50;;;;;;;;;;5031034;28;20383;-79
2022/10/14 11:53:49;;;;;;;2.85;1.20;;;;;;;;;;5032321;28;20059;-78
2022/10/14 11:56:35;;;;;;;3.03;1.40;;;;;;;;;;5032196;28;20528;-77
2022/10/14 11:59:40;;;;;;;3.85;1.60;;;;;;;;;;5032263;28;20124;-79
2022/10/14 12:02:13;;;;;;;2.88;1.58;;;;;;;;;;5015124;28;20534;-80
2022/10/14 12:04:41;;;;;;;3.63;1.88;;;;;;;;;;5009961;28;20418;-79
2022/10/14 12:07:11;;;;;;;3.00;1.60;;;;;;;;;;5021917;28;20054;-78
2022/10/14 12:09:42;;;;;;;3.20;1.80;;;;;;;;;;5034722;28;20505;-78
2022/10/14 12:12:10;;;;;;;3.72;1.73;;;;;;;;;;5034684;28;20049;-81
2022/10/14 12:14:39;;;;;;;3.15;1.80;;;;;;;;;;5032521;28;20057;-79
2022/10/14 12:17:12;;;;;;;4.20;1.80;;;;;;;;;;5031879;28;20045;-80
2022/10/14 12:19:44;;;;;;;2.97;1.95;;;;;;;;;;5032410;28;20049;-79
2022/10/14 12:22:24;;;;;;;3.67;2.03;;;;;;;;;;5034514;28;20060;-79
2022/10/14 12:24:52;;;;;;;4.53;1.70;;;;;;;;;;5035575;28;20081;-79
2022/10/14 12:27:20;;;;;;;6.50;1.77;;;;;;;;;;5033208;28;20060;-79
2022/10/14 12:29:48;;;;;;;2.25;1.80;;;;;;;;;;5031398;28;20049;-78
2022/10/14 12:32:15;;;;;;;2.78;1.75;;;;;;;;;;5033142;28;20576;-79
2022/10/14 12:34:42;;;;;;;2.17;1.65;;;;;;;;;;5031813;28;20049;-77
2022/10/14 12:37:23;;;;;;;4.75;1.85;;;;;;;;;;5031000;28;20402;-78
2022/10/14 12:39:56;;;;;;;5.28;1.70;;;;;;;;;;5033592;28;20049;-78
2022/10/14 12:42:23;;;;;;;2.50;1.60;;;;;;;;;;5033181;28;20045;-79
2022/10/14 12:44:54;;;;;;;4.60;1.63;;;;;;;;;;5036137;28;20056;-78
2022/10/14 12:47:31;;;;;;;5.40;1.77;;;;;;;;;;5033576;28;20046;-79
2022/10/14 12:50:01;;;;;;;4.22;1.52;;;;;;;;;;5033731;28;20053;-77
2022/10/14 12:52:36;;;;;;;2.80;1.80;;;;;;;;;;5039197;28;20049;-79
2022/10/14 12:55:28;;;;;;;3.77;1.73;;;;;;;;;;5034591;28;20057;-80
2022/10/14 12:57:56;;;;;;;2.60;1.45;;;;;;;;;;5027509;28;20054;-80
2022/10/14 13:00:23;;;;;;;2.47;1.63;;;;;;;;;;5032372;28;20053;-80
2022/10/14 13:02:50;;;;;;;1.90;1.58;;;;;;;;;;5033938;28;20089;-79
2022/10/14 13:05:26;;;;;;;1.90;1.40;;;;;;;;;;5034816;28;20049;-80
2022/10/14 13:08:15;;;;;;;3.72;1.20;;;;;;;;;;5033128;28;20046;-80
2022/10/14 13:10:47;;;;;;;1.90;1.10;;;;;;;;;;5031174;28;20045;-79
2022/10/14 13:13:32;;;;;;;2.30;1.63;;;;;;;;;;5032521;28;20103;-80
2022/10/14 13:15:58;;;;;;;3.23;1.37;;;;;;;;;;5032636;28;20049;-80
2022/10/14 13:18:32;;;;;;;1.88;1.10;;;;;;;;;;5031108;28;20053;-80
2022/10/14 13:20:58;;;;;;;2.05;1.35;;;;;;;;;;5033102;28;20125;-81
2022/10/14 13:23:43;;;;;;;2.78;1.33;;;;;;;;;;5032530;28;20383;-81
2022/10/14 13:26:14;;;;;;;2.22;1.30;;;;;;;;;;5032329;28;20217;-79
2022/10/14 13:28:46;;;;;;;2.38;1.10;;;;;;;;;;5031542;28;20057;-82
2022/10/14 13:31:16;;;;;;;3.13;1.40;;;;;;;;;;5030134;28;20076;-80
2022/10/14 13:33:51;;;;;;;1.73;1.27;;;;;;;;;;5029744;28;20561;-80
2022/10/14 13:36:20;;;;;;;3.50;1.10;;;;;;;;;;5041979;28;20310;-79
2022/10/14 13:38:52;;;;;;;1.75;1.10;;;;;;;;;;5047468;28;20112;-79
2022/10/14 13:41:24;;;;;;;1.88;1.00;;;;;;;;;;5042316;28;20053;-81
2022/10/14 13:43:57;;;;;;;1.60;1.15;;;;;;;;;;5051494;28;20159;-81
2022/10/14 13:46:26;;;;;;;3.40;1.23;;;;;;;;;;5050955;28;20029;-80
2022/10/14 13:48:58;;;;;;;3.88;1.40;;;;;;;;;;5048954;28;20029;-80
2022/10/14 13:51:27;;;;;;;2.38;1.38;;;;;;;;;;5033499;28;20140;-80
2022/10/14 13:54:16;;;;;;;5.05;1.30;;;;;;;;;;5048409;28;20037;-80
2022/10/14 13:56:43;;;;;;;3.53;1.48;;;;;;;;;;5049755;28;20057;-79
2022/10/14 13:59:16;;;;;;;3.20;1.30;;;;;;;;;;5035366;28;20059;-79
2022/10/14 14:02:09;;;;;;;5.28;1.50;;;;;;;;;;5031495;28;20053;-80
2022/10/14 14:04:36;;;;;;;3.42;1.30;;;;;;;;;;5023850;28;20045;-80
2022/10/14 14:07:03;;;;;;;4.80;1.52;;;;;;;;;;5026560;28;20068;-79
2022/10/14 14:09:50;;;;;;;2.72;1.40;;;;;;;;;;5055291;28;20037;-79
2022/10/14 14:12:19;;;;;;;3.75;1.35;;;;;;;;;;5052338;28;20069;-80
2022/10/14 14:14:46;;;;;;;4.22;1.70;;;;;;;;;;5045452;28;20053;-80
2022/10/14 14:17:22;;;;;;;4.50;1.65;;;;;;;;;;5032121;28;20136;-80
2022/10/14 14:19:49;;;;;;;4.35;1.52;;;;;;;;;;5031030;28;20053;-80
2022/10/14 14:22:16;;;;;;;7.90;1.45;;;;;;;;;;5031124;28;20069;-79
2022/10/14 14:24:42;;;;;;;3.13;1.50;;;;;;;;;;5030813;28;20450;-80
2022/10/14 14:27:22;;;;;;;2.88;1.60;;;;;;;;;;5037435;28;20049;-81
2022/10/14 14:29:50;;;;;;;2.47;1.50;;;;;;;;;;5056205;28;20077;-81
2022/10/14 14:32:18;;;;;;;2.47;1.55;;;;;;;;;;5060545;28;20071;-79
2022/10/14 14:34:46;;;;;;;2.47;1.40;;;;;;;;;;5062651;28;20528;-78
2022/10/14 14:37:14;;;;;;;3.13;1.70;;;;;;;;;;5059738;28;20049;-82
2022/10/14 14:40:06;;;;;;;2.80;1.80;;;;;;;;;;5046395;28;20087;-78
2022/10/14 14:42:38;;;;;;;5.13;1.73;;;;;;;;;;5058404;28;20049;-80
2022/10/14 14:45:13;;;;;;;6.10;1.80;;;;;;;;;;5058227;28;20075;-81
2022/10/14 14:47:40;;;;;;;3.72;1.95;;;;;;;;;;5057467;28;20056;-81